createdAt,value
2023-03-23T16:02:50.960Z,33.03
2023-03-23T16:07:52.483Z,32.75
2023-03-23T16:12:53.968Z,32.54
2023-03-23T16:17:55.698Z,32.45
2023-03-23T16:22:57.392Z,32.46
2023-03-23T16:27:58.786Z,32.45
2023-03-23T16:33:01.131Z,32.34
2023-03-23T16:38:07.728Z,32.51
2023-03-23T16:43:10.673Z,32.41
2023-03-23T16:48:13.281Z,32.59
2023-03-23T16:53:14.716Z,32.59
2023-03-23T16:58:17.787Z,32.79
2023-03-23T17:03:20.249Z,32.99
2023-03-23T17:08:21.693Z,33.03
2023-03-23T17:13:25.236Z,33.24
2023-03-23T17:18:28.493Z,33.32
2023-03-23T17:23:29.942Z,33.48
2023-03-23T17:28:31.413Z,33.53
2023-03-23T17:33:32.885Z,33.50
2023-03-23T17:38:34.281Z,33.50
2023-03-23T17:43:36.293Z,33.57
2023-03-23T17:48:37.767Z,33.87
2023-03-23T17:53:39.240Z,33.82
2023-03-23T17:58:40.902Z,34.08
2023-03-23T18:03:44.087Z,34.44
2023-03-23T18:08:46.767Z,34.46
2023-03-23T18:13:48.163Z,34.74
2023-03-23T18:18:49.569Z,34.88
2023-03-23T18:23:58.671Z,34.85
2023-03-23T18:29:01.000Z,35.17
2023-03-23T18:34:02.407Z,35.37
2023-03-23T18:39:03.888Z,35.27
2023-03-23T18:44:06.135Z,35.49
2023-03-23T18:49:07.538Z,35.43
2023-03-23T18:54:08.938Z,35.58
2023-03-23T18:59:10.591Z,35.66
2023-03-23T19:04:13.399Z,35.74
2023-03-23T19:09:15.650Z,35.62
2023-03-23T19:14:18.279Z,35.87
2023-03-23T19:19:19.928Z,35.67
2023-03-23T19:24:21.457Z,35.85
2023-03-23T19:29:27.057Z,35.78
2023-03-23T19:34:29.523Z,35.84
2023-03-23T19:39:31.762Z,35.78
2023-03-23T19:44:34.144Z,35.76
2023-03-23T19:49:36.073Z,35.94
2023-03-23T19:54:38.360Z,36.00
2023-03-23T19:59:39.829Z,36.13
2023-03-23T20:04:41.542Z,36.01
2023-03-23T20:09:43.439Z,36.08
2023-03-23T20:14:45.409Z,36.01
2023-03-23T20:19:47.007Z,36.13
2023-03-23T20:24:49.472Z,35.98
2023-03-23T20:29:52.182Z,36.08
2023-03-23T20:34:53.580Z,36.09
2023-03-23T20:39:55.296Z,36.38
2023-03-23T20:44:57.203Z,36.12
2023-03-23T20:49:58.645Z,36.28
2023-03-23T20:55:00.762Z,36.25
2023-03-23T21:00:06.344Z,35.97
2023-03-23T21:05:08.854Z,36.00
2023-03-23T21:10:10.242Z,36.09
2023-03-23T21:15:12.182Z,36.09
2023-03-23T21:20:13.567Z,36.14
2023-03-23T21:25:15.109Z,35.90
2023-03-23T21:30:16.518Z,36.12
2023-03-23T21:35:17.906Z,36.11
2023-03-23T21:40:19.877Z,36.04
2023-03-23T21:45:21.814Z,35.81
2023-03-23T21:50:24.141Z,35.86
2023-03-23T21:55:29.584Z,35.82
2023-03-23T22:00:30.992Z,35.79
2023-03-23T22:05:32.895Z,35.69
2023-03-23T22:10:34.290Z,35.78
2023-03-23T22:15:36.744Z,35.71
2023-03-23T22:20:40.221Z,35.41
2023-03-23T22:25:41.748Z,35.47
2023-03-23T22:30:43.352Z,35.50
2023-03-23T22:35:47.427Z,35.62
2023-03-23T22:40:59.224Z,35.48
2023-03-23T22:46:00.691Z,35.68
2023-03-23T22:51:03.482Z,35.60
2023-03-23T22:56:05.487Z,35.63
2023-03-23T23:01:09.043Z,35.50
2023-03-23T23:06:11.711Z,35.55
2023-03-23T23:11:17.279Z,35.62
2023-03-23T23:16:19.207Z,35.45
2023-03-23T23:21:21.770Z,35.72
2023-03-23T23:26:23.409Z,35.83
2023-03-23T23:31:27.273Z,35.87
2023-03-23T23:36:29.596Z,35.66
2023-03-23T23:41:31.599Z,35.95
2023-03-23T23:46:33.080Z,36.00
2023-03-23T23:51:34.747Z,35.99
2023-03-23T23:56:36.243Z,36.10
